.
WxDataArchive / Data Records for 2009-05-14
2009-05-13 May 2009 2009-05-15

Data Records for Thursday, 14 May 2009

Time	Temp	Chill	HIndex	Humid	Dewpt	 Wind 	HiWind	WindDir	Rain 	Barom 
-----	----	-----	------	-----	-----	------	------	-------	-----	----- 
00:00	65.6	65.6	65.6	84	60.6	3	6	248	0.00	29.763 
00:05	66.1	66.1	66.1	84	61.1	4	10	270	0.00	29.763 
00:10	66.6	66.6	66.6	83	61.3	3	9	248	0.00	29.763 
00:15	66.9	66.9	66.9	83	61.6	4	10	248	0.00	29.749 
00:20	67.1	67.1	67.1	83	61.8	4	12	248	0.00	29.749 
00:25	67.3	67.3	67.3	82	61.6	4	11	270	0.00	29.749 
00:30	67.3	67.3	67.3	82	61.6	4	14	248	0.00	29.739 
00:35	67.4	67.4	67.4	82	61.7	4	13	292	0.00	29.739 
00:40	67.4	67.4	67.4	82	61.7	4	14	248	0.00	29.739 
00:45	67.4	67.4	67.4	81	61.4	3	14	248	0.00	29.729 
00:50	67.6	67.6	67.6	81	61.6	5	15	112	0.00	29.729 
00:55	67.6	67.6	67.6	82	61.9	3	12	270	0.01	29.729 
01:00	67.4	67.4	67.4	82	61.7	4	9	270	0.00	29.728 
01:05	67.6	67.6	67.6	82	61.9	3	9	248	0.00	29.728 
01:10	67.4	67.4	67.4	82	61.7	4	10	270	0.00	29.728 
01:15	67.3	67.3	67.3	83	62.0	4	16	248	0.02	29.743 
01:20	66.4	66.4	66.4	87	62.4	4	16	248	0.07	29.743 
01:25	66.0	66.0	66.0	88	62.3	3	10	270	0.00	29.743 
01:30	65.6	65.6	65.6	90	62.6	3	8	248	0.00	29.731 
01:35	65.6	65.6	65.6	90	62.6	3	7	248	0.00	29.731 
01:40	65.8	65.8	65.8	90	62.8	4	14	270	0.00	29.731 
01:45	66.0	66.0	66.0	88	62.3	5	12	270	0.00	29.714 
01:50	66.1	66.1	66.1	88	62.4	3	9	292	0.00	29.714 
01:55	66.3	66.3	66.3	88	62.6	2	5	270	0.00	29.714 
02:00	66.4	66.4	66.4	87	62.4	4	13	270	0.00	29.699 
02:05	66.8	66.8	66.8	86	62.5	3	11	68	0.00	29.699 
02:10	66.8	66.8	66.8	86	62.5	3	8	270	0.00	29.699 
02:15	66.8	66.8	66.8	85	62.1	3	7	270	0.00	29.692 
02:20	66.9	66.9	66.9	85	62.2	3	11	90	0.00	29.692 
02:25	66.9	66.9	66.9	85	62.2	3	10	292	0.00	29.692 
02:30	67.1	67.1	67.1	84	62.1	4	11	270	0.00	29.676 
02:35	67.3	67.3	67.3	84	62.3	4	15	270	0.00	29.676 
02:40	67.3	67.3	67.3	84	62.3	3	16	270	0.00	29.676 
02:45	67.4	67.4	67.4	84	62.4	3	10	292	0.00	29.665 
02:50	67.6	67.6	67.6	83	62.2	4	9	270	0.00	29.665 
02:55	67.6	67.6	67.6	83	62.2	5	14	270	0.00	29.665 
03:00	67.8	67.8	67.8	83	62.4	4	14	270	0.00	29.674 
03:05	67.9	67.9	67.9	83	62.5	4	18	270	0.00	29.674 
03:10	67.8	67.8	67.8	84	62.8	4	12	270	0.00	29.674 
03:15	67.6	67.6	67.6	84	62.6	4	11	270	0.00	29.669 
03:20	67.3	67.3	67.3	86	63.0	3	13	270	0.02	29.669 
03:25	66.8	66.8	66.8	88	63.1	4	13	270	0.05	29.669 
03:30	66.3	66.3	66.3	90	63.3	4	14	248	0.06	29.667 
03:35	65.8	65.8	65.8	91	63.1	4	15	270	0.02	29.667 
03:40	65.6	65.6	65.6	92	63.2	3	11	248	0.02	29.667 
03:45	65.6	65.6	65.6	93	63.5	4	12	270	0.01	29.684 
03:50	65.6	65.6	65.6	93	63.5	3	5	270	0.00	29.684 
03:55	65.6	65.6	65.6	93	63.5	2	5	292	0.01	29.684 
04:00	65.6	65.6	65.6	93	63.5	1	4	270	0.04	29.698 
04:05	65.5	65.5	65.5	93	63.4	1	6	315	0.03	29.698 
04:10	65.3	65.3	65.3	93	63.2	1	4	270	0.02	29.698 
04:15	65.3	65.3	65.3	94	63.5	2	7	248	0.01	29.682 
04:20	65.5	65.5	65.5	94	63.7	3	5	248	0.01	29.682 
04:25	65.5	65.5	65.5	94	63.7	2	5	225	0.01	29.682 
04:30	65.3	65.3	65.3	94	63.5	1	4	248	0.02	29.680 
04:35	65.3	65.3	65.3	94	63.5	2	9	248	0.02	29.680 
04:40	65.3	65.3	65.3	95	63.8	2	4	248	0.02	29.680 
04:45	65.3	65.3	65.3	95	63.8	2	7	248	0.02	29.676 
04:50	65.3	65.3	65.3	95	63.8	2	4	270	0.02	29.676 
04:55	65.3	65.3	65.3	95	63.8	2	5	292	0.02	29.676 
05:00	65.3	65.3	65.3	95	63.8	2	6	225	0.01	29.685 
05:05	65.2	65.2	65.2	95	63.7	2	6	248	0.01	29.685 
05:10	65.2	65.2	65.2	95	63.7	2	5	270	0.01	29.685 
05:15	65.2	65.2	65.2	95	63.7	2	5	248	0.01	29.698 
05:20	65.2	65.2	65.2	95	63.7	3	10	270	0.01	29.698 
05:25	65.0	65.0	65.0	95	63.5	3	9	270	0.02	29.698 
05:30	65.0	65.0	65.0	95	63.5	3	7	248	0.01	29.720 
05:35	64.8	64.8	64.8	95	63.3	3	6	292	0.00	29.720 
05:40	64.7	64.7	64.7	95	63.2	3	6	270	0.00	29.720 
05:45	64.0	64.0	64.0	95	62.5	3	7	248	0.00	29.732 
05:50	63.9	63.9	63.9	95	62.4	2	5	248	0.01	29.732 
05:55	63.7	63.7	63.7	95	62.2	2	7	248	0.00	29.732 
06:00	63.5	63.5	63.5	95	62.0	2	5	248	0.00	29.757 
06:05	63.4	63.4	63.4	94	61.6	2	5	248	0.00	29.757 
06:10	63.2	63.2	63.2	94	61.4	2	5	248	0.00	29.757 
06:15	63.1	63.1	63.1	94	61.3	2	5	270	0.00	29.776 
06:20	63.1	63.1	63.1	94	61.3	2	6	248	0.00	29.776 
06:25	63.1	63.1	63.1	94	61.3	2	4	248	0.00	29.776 
06:30	62.9	62.9	62.9	94	61.1	2	5	270	0.00	29.787 
06:35	62.9	62.9	62.9	93	60.8	1	4	225	0.00	29.787 
06:40	62.7	62.7	62.7	93	60.6	2	6	248	0.00	29.787 
06:45	62.6	62.6	62.6	92	60.2	2	6	248	0.00	29.799 
06:50	62.4	62.4	62.4	92	60.0	1	5	270	0.00	29.799 
06:55	62.4	62.4	62.4	92	60.0	1	3	270	0.00	29.799 
07:00	62.4	62.4	62.4	92	60.0	2	5	248	0.00	29.808 
07:05	62.4	62.4	62.4	92	60.0	1	3	225	0.00	29.808 
07:10	62.4	62.4	62.4	92	60.0	1	4	248	0.00	29.808 
07:15	62.3	62.3	62.3	92	59.9	1	3	248	0.00	29.822 
07:20	62.3	62.3	62.3	92	59.9	1	5	248	0.00	29.822 
07:25	62.1	62.1	62.1	92	59.7	2	6	248	0.00	29.822 
07:30	62.1	62.1	62.1	91	59.4	2	5	248	0.00	29.827 
07:35	62.1	62.1	62.1	91	59.4	1	3	248	0.00	29.827 
07:40	62.0	62.0	62.0	91	59.3	2	4	270	0.00	29.827 
07:45	62.0	62.0	62.0	90	59.0	2	4	248	0.00	29.842 
07:50	62.0	62.0	62.0	90	59.0	2	6	248	0.00	29.842 
07:55	61.8	61.8	61.8	88	58.2	2	5	248	0.00	29.842 
08:00	61.8	61.8	61.8	87	57.9	2	7	248	0.00	29.855 
08:05	62.0	62.0	62.0	86	57.8	3	5	248	0.00	29.855 
08:10	62.0	62.0	62.0	84	57.1	2	5	248	0.00	29.855 
08:15	62.0	62.0	62.0	83	56.8	3	6	248	0.00	29.871 
08:20	62.0	62.0	62.0	81	56.1	2	4	270	0.00	29.871 
08:25	61.8	61.8	61.8	79	55.2	3	6	270	0.00	29.871 
08:30	62.0	62.0	62.0	78	55.1	2	5	248	0.00	29.887 
08:35	61.8	61.8	61.8	75	53.8	2	6	248	0.00	29.887 
08:40	61.8	61.8	61.8	73	53.0	2	5	270	0.00	29.887 
08:45	61.8	61.8	61.8	70	51.9	2	4	270	0.00	29.901 
08:50	61.8	61.8	61.8	69	51.5	2	5	292	0.00	29.901 
08:55	62.0	62.0	62.0	66	50.5	3	6	270	0.00	29.901 
09:00	62.0	62.0	62.0	65	50.1	2	5	270	0.00	29.911 
09:05	62.0	62.0	62.0	65	50.1	3	6	292	0.00	29.911 
09:10	62.0	62.0	62.0	64	49.7	2	5	248	0.00	29.911 
09:15	62.1	62.1	62.1	65	50.2	2	4	270	0.00	29.921 
09:20	62.4	62.4	62.4	65	50.5	2	5	270	0.00	29.921 
09:25	62.7	62.7	62.7	66	51.2	2	4	270	0.00	29.921 
09:30	63.1	63.1	63.1	65	51.1	2	5	270	0.00	29.921 
09:35	63.1	63.1	63.1	62	49.9	3	5	270	0.00	29.921 
09:40	63.4	63.4	63.4	64	51.0	2	4	270	0.00	29.921 
09:45	63.7	63.7	63.7	60	49.5	2	5	248	0.00	29.928 
09:50	63.7	63.7	63.7	57	48.2	3	5	292	0.00	29.928 
09:55	63.9	63.9	63.9	55	47.4	3	6	270	0.00	29.928 
10:00	64.0	64.0	64.0	56	48.0	3	6	270	0.00	29.939 
10:05	63.9	63.9	63.9	56	47.9	3	7	270	0.00	29.939 
10:10	64.0	64.0	64.0	54	47.0	2	5	270	0.00	29.939 
10:15	64.3	64.3	64.3	51	45.8	3	7	270	0.00	29.950 
10:20	64.5	64.5	64.5	52	46.5	3	5	270	0.00	29.950 
10:25	64.7	64.7	64.7	51	46.1	3	7	270	0.00	29.950 
10:30	64.8	64.8	64.8	51	46.2	2	4	248	0.00	29.957 
10:35	65.0	65.0	65.0	52	46.9	3	5	270	0.00	29.957 
10:40	64.7	64.7	64.7	52	46.7	3	7	270	0.00	29.957 
10:45	64.5	64.5	64.5	54	47.5	2	5	292	0.00	29.967 
10:50	64.5	64.5	64.5	50	45.4	3	6	270	0.00	29.967 
10:55	64.5	64.5	64.5	52	46.5	2	6	270	0.00	29.967 
11:00	64.7	64.7	64.7	51	46.1	3	6	270	0.00	29.980 
11:05	65.5	65.5	65.5	46	44.2	3	9	248	0.00	29.980 
11:10	65.8	65.8	65.8	49	46.1	3	7	248	0.00	29.980 
11:15	65.8	65.8	65.8	43	42.7	4	9	270	0.00	29.980 
11:20	66.1	66.1	66.1	48	45.8	3	6	270	0.00	29.980 
11:25	66.6	66.6	66.6	43	43.4	3	7	270	0.00	29.980 
11:30	66.9	66.9	66.9	42	43.1	3	6	292	0.00	29.988 
11:35	67.3	67.3	67.3	44	44.6	3	7	270	0.00	29.988 
11:40	66.9	66.9	66.9	45	44.9	4	7	270	0.00	29.988 
11:45	67.1	67.1	67.1	46	45.6	3	7	270	0.00	29.995 
11:50	67.4	67.4	67.4	45	45.3	4	9	270	0.00	29.995 
11:55	67.8	67.8	67.8	42	43.9	3	7	270	0.00	29.995 
12:00	67.9	67.9	67.9	38	41.3	5	12	270	0.00	30.005 
12:05	68.1	68.1	68.1	38	41.5	4	9	270	0.00	30.005 
12:10	68.1	68.1	68.1	34	38.7	5	13	270	0.00	30.005 
12:15	68.3	68.3	68.3	34	38.8	4	8	270	0.00	30.009 
12:20	68.3	68.3	68.3	32	37.3	5	10	270	0.00	30.009 
12:25	68.4	68.4	68.4	35	39.7	4	9	270	0.00	30.009 
12:30	68.4	68.4	68.4	28	34.0	5	12	270	0.00	30.011 
12:35	68.3	68.3	68.3	29	34.8	5	10	270	0.00	30.011 
12:40	68.3	68.3	68.3	33	38.1	4	10	270	0.00	30.011 
12:45	67.8	67.8	67.8	32	36.9	4	7	270	0.00	30.013 
12:50	67.6	67.6	67.6	36	39.7	3	6	270	0.00	30.013 
12:55	68.1	68.1	68.1	37	40.8	3	6	270	0.00	30.013 
13:00	68.3	68.3	68.3	38	41.7	3	11	270	0.00	30.022 
13:05	68.8	68.8	68.8	35	40.0	4	10	270	0.00	30.022 
13:10	68.9	68.9	68.9	34	39.4	3	6	292	0.00	30.022 
13:15	68.9	68.9	68.9	33	38.6	4	10	270	0.00	30.025 
13:20	68.9	68.9	68.9	39	42.9	3	7	292	0.00	30.025 
13:25	69.3	69.3	69.3	36	41.2	3	6	270	0.00	30.025 
13:30	69.1	69.1	69.1	35	40.3	4	7	270	0.00	30.027 
13:35	68.9	68.9	68.9	38	42.2	3	7	270	0.00	30.027 
13:40	68.9	68.9	68.9	40	43.6	3	9	292	0.00	30.027 
13:45	69.1	69.1	69.1	38	42.4	3	6	270	0.00	30.032 
13:50	69.3	69.3	69.3	34	39.7	4	6	270	0.00	30.032 
13:55	69.3	69.3	69.3	37	41.9	3	7	270	0.00	30.032 
14:00	69.4	69.4	69.4	37	42.0	4	9	270	0.00	30.040 
14:05	69.3	69.3	69.3	34	39.7	3	6	270	0.00	30.040 
14:10	69.6	69.6	69.6	39	43.5	3	6	248	0.00	30.040 
14:15	69.4	69.4	69.4	38	42.7	4	9	270	0.00	30.037 
14:20	69.4	69.4	69.4	39	43.4	4	12	270	0.00	30.037 
14:25	69.6	69.6	69.6	37	42.2	4	9	270	0.00	30.037 
14:30	69.9	69.9	69.9	37	42.4	3	7	270	0.00	30.039 
14:35	70.1	70.1	70.1	37	42.6	3	9	270	0.00	30.039 
14:40	70.1	70.1	70.1	38	43.3	4	9	270	0.00	30.039 
14:45	70.3	70.3	70.3	39	44.2	3	8	270	0.00	30.040 
14:50	70.8	70.8	70.8	40	45.3	2	6	248	0.00	30.040 
14:55	70.9	70.9	70.9	39	44.7	2	7	270	0.00	30.040 
15:00	71.5	71.5	71.5	38	44.5	3	5	270	0.00	30.047 
15:05	71.1	71.1	71.1	36	42.8	3	7	270	0.00	30.047 
15:10	70.8	70.8	70.8	40	45.3	3	5	270	0.00	30.047 
15:15	70.4	70.4	70.4	39	44.2	4	8	270	0.00	30.050 
15:20	70.8	70.8	70.8	37	43.2	3	6	270	0.00	30.050 
15:25	70.8	70.8	70.8	39	44.6	3	6	270	0.00	30.050 
15:30	70.8	70.8	70.8	36	42.5	4	7	270	0.00	30.053 
15:35	70.9	70.9	70.9	39	44.7	3	7	270	0.00	30.053 
15:40	70.8	70.8	70.8	40	45.3	3	6	270	0.00	30.053 
15:45	70.6	70.6	70.6	41	45.7	3	6	248	0.00	30.054 
15:50	70.4	70.4	70.4	41	45.6	3	6	270	0.00	30.054 
15:55	70.3	70.3	70.3	40	44.8	4	10	270	0.00	30.054 
16:00	70.4	70.4	70.4	39	44.2	3	9	270	0.00	30.055 
16:05	70.4	70.4	70.4	39	44.2	3	7	270	0.00	30.055 
16:10	70.6	70.6	70.6	39	44.4	3	8	270	0.00	30.055 
16:15	70.4	70.4	70.4	39	44.2	4	11	270	0.00	30.057 
16:20	70.1	70.1	70.1	39	44.0	3	6	270	0.00	30.057 
16:25	70.6	70.6	70.6	39	44.4	3	7	248	0.00	30.057 
16:30	70.6	70.6	70.6	40	45.1	3	7	270	0.00	30.053 
16:35	70.8	70.8	70.8	38	43.9	3	8	292	0.00	30.053 
16:40	70.4	70.4	70.4	39	44.2	4	9	270	0.00	30.053 
16:45	70.4	70.4	70.4	38	43.6	3	9	270	0.00	30.057 
16:50	70.6	70.6	70.6	39	44.4	3	9	270	0.00	30.057 
16:55	70.6	70.6	70.6	41	45.7	3	8	248	0.00	30.057 
17:00	70.4	70.4	70.4	39	44.2	3	7	270	0.00	30.065 
17:05	70.4	70.4	70.4	40	44.9	4	9	270	0.00	30.065 
17:10	70.3	70.3	70.3	40	44.8	3	5	270	0.00	30.065 
17:15	70.4	70.4	70.4	41	45.6	3	5	248	0.00	30.071 
17:20	70.6	70.6	70.6	39	44.4	3	7	248	0.00	30.071 
17:25	70.3	70.3	70.3	41	45.5	2	4	270	0.00	30.071 
17:30	70.3	70.3	70.3	41	45.5	3	10	270	0.00	30.075 
17:35	70.3	70.3	70.3	40	44.8	3	5	270	0.00	30.075 
17:40	70.4	70.4	70.4	40	44.9	3	6	270	0.00	30.075 
17:45	70.4	70.4	70.4	42	46.2	2	6	248	0.00	30.082 
17:50	70.8	70.8	70.8	41	45.9	2	7	270	0.00	30.082 
17:55	70.9	70.9	70.9	40	45.4	2	5	270	0.00	30.082 
18:00	70.8	70.8	70.8	40	45.3	3	7	270	0.00	30.086 
18:05	70.3	70.3	70.3	40	44.8	2	4	270	0.00	30.086 
18:10	70.3	70.3	70.3	43	46.7	2	3	292	0.00	30.086 
18:15	70.4	70.4	70.4	43	46.8	1	4	270	0.00	30.088 
18:20	70.4	70.4	70.4	41	45.6	2	4	292	0.00	30.088 
18:25	70.3	70.3	70.3	41	45.5	2	5	292	0.00	30.088 
18:30	70.1	70.1	70.1	41	45.3	2	5	270	0.00	30.088 
18:35	69.9	69.9	69.9	41	45.1	2	5	248	0.00	30.088 
18:40	69.8	69.8	69.8	41	45.0	2	5	270	0.00	30.088 
18:45	69.8	69.8	69.8	41	45.0	2	5	270	0.00	30.088 
18:50	69.8	69.8	69.8	40	44.4	2	7	270	0.00	30.088 
18:55	69.8	69.8	69.8	39	43.7	1	2	315	0.00	30.088 
19:00	69.6	69.6	69.6	39	43.5	1	2	270	0.00	30.089 
19:05	69.6	69.6	69.6	41	44.8	1	3	270	0.00	30.089 
19:10	69.4	69.4	69.4	37	42.0	2	6	270	0.00	30.089 
19:15	69.1	69.1	69.1	35	40.3	3	6	270	0.00	30.094 
19:20	68.8	68.8	68.8	35	40.0	3	6	270	0.00	30.094 
19:25	68.8	68.8	68.8	37	41.5	1	4	292	0.00	30.094 
19:30	68.4	68.4	68.4	37	41.1	2	4	270	0.00	30.102 
19:35	68.3	68.3	68.3	37	41.0	2	5	292	0.00	30.102 
19:40	68.1	68.1	68.1	38	41.5	1	3	270	0.00	30.102 
19:45	67.9	67.9	67.9	38	41.3	1	3	270	0.00	30.106 
19:50	67.8	67.8	67.8	40	42.6	1	3	292	0.00	30.106 
19:55	67.6	67.6	67.6	40	42.4	1	2	292	0.00	30.106 
20:00	67.4	67.4	67.4	41	42.9	0	2	292	0.00	30.110 
20:05	67.1	67.1	67.1	40	42.0	0	2	292	0.00	30.110 
20:10	66.9	66.9	66.9	41	42.4	0	1	292	0.00	30.110 
20:15	66.6	66.6	66.6	42	42.8	0	1	292	0.00	30.121 
20:20	66.3	66.3	66.3	42	42.5	0	1	292	0.00	30.121 
20:25	66.1	66.1	66.1	43	42.9	0	1	292	0.00	30.121 
20:30	66.0	66.0	66.0	45	44.0	0	1	292	0.00	30.124 
20:35	65.6	65.6	65.6	45	43.7	0	1	292	0.00	30.124 
20:40	65.3	65.3	65.3	45	43.4	0	1	292	0.00	30.124 
20:45	64.8	64.8	64.8	46	43.5	0	0	---	0.00	30.127 
20:50	64.5	64.5	64.5	47	43.8	0	0	---	0.00	30.127 
20:55	64.0	64.0	64.0	48	43.9	0	0	---	0.00	30.127 
21:00	63.5	63.5	63.5	49	44.0	0	1	292	0.00	30.127 
21:05	63.1	63.1	63.1	50	44.2	0	0	---	0.00	30.127 
21:10	62.6	62.6	62.6	51	44.2	0	0	---	0.00	30.127 
21:15	61.8	61.8	61.8	54	45.0	0	0	---	0.00	30.127 
21:20	61.2	61.2	61.2	54	44.4	0	0	---	0.00	30.127 
21:25	60.4	60.4	60.4	56	44.6	0	0	---	0.00	30.127 
21:30	59.8	59.8	59.8	57	44.5	0	0	---	0.00	30.134 
21:35	59.2	59.2	59.2	58	44.4	0	0	---	0.00	30.134 
21:40	58.7	58.7	58.7	61	45.3	0	0	---	0.00	30.134 
21:45	58.1	58.1	58.1	63	45.6	0	0	---	0.00	30.143 
21:50	57.6	57.6	57.6	65	45.9	0	0	---	0.00	30.143 
21:55	57.3	57.3	57.3	65	45.6	0	0	---	0.00	30.143 
22:00	57.0	57.0	57.0	67	46.2	0	0	---	0.00	30.147 
22:05	56.6	56.6	56.6	67	45.8	0	0	---	0.00	30.147 
22:10	56.2	56.2	56.2	69	46.2	0	0	---	0.00	30.147 
22:15	55.9	55.9	55.9	69	45.9	0	0	---	0.00	30.157 
22:20	55.6	55.6	55.6	70	46.0	0	0	---	0.00	30.157 
22:25	55.1	55.1	55.1	71	45.9	0	0	---	0.00	30.157 
22:30	54.8	54.8	54.8	73	46.3	0	0	---	0.00	30.164 
22:35	54.5	54.5	54.5	74	46.4	0	0	---	0.00	30.164 
22:40	54.2	54.2	54.2	75	46.4	0	0	---	0.00	30.164 
22:45	54.1	54.1	54.1	76	46.7	0	0	---	0.00	30.170 
22:50	53.8	53.8	53.8	77	46.8	0	0	---	0.00	30.170 
22:55	53.6	53.6	53.6	77	46.6	0	0	---	0.00	30.170 
23:00	53.3	53.3	53.3	77	46.3	0	0	---	0.00	30.168 
23:05	53.2	53.2	53.2	78	46.5	0	0	---	0.00	30.168 
23:10	52.9	52.9	52.9	79	46.6	0	0	---	0.00	30.168 
23:15	52.8	52.8	52.8	81	47.1	0	0	---	0.00	30.169 
23:20	52.6	52.6	52.6	81	46.9	0	0	---	0.00	30.169 
23:25	52.6	52.6	52.6	81	46.9	0	0	---	0.00	30.169 
23:30	52.3	52.3	52.3	82	47.0	0	0	---	0.00	30.173 
23:35	52.2	52.2	52.2	82	46.9	0	0	---	0.00	30.173 
23:40	52.0	52.0	52.0	82	46.7	0	0	---	0.00	30.173 
23:45	51.9	51.9	51.9	83	46.9	0	0	---	0.00	30.175 
23:50	51.7	51.7	51.7	83	46.7	0	0	---	0.00	30.175 
23:55	51.6	51.6	51.6	84	46.9	0	0	---	0.00	30.175 

CoCoRaHS
IN-AL-39
A2 Web Hosting
Creative Commons License
GoDaddy
search engine by freefind advanced

loaded 2018-11-16 11:56:25 • last modified 2010-11-18 10:43:29
Privacy PolicyDisclaimer
• wx.awcolley.com is powered by PmWiki v.2002016 •
• all content (unless otherwise noted) © 2018 A W Colley